Terminal Aerodrome Forecast
Issued by NWS

Home | Current Version | Previous Version | Text Only | Print | Product List | Glossary On
Versions: 1 2 3 4 5 6 7 8 9 10 11 12 13 14 15 16
000
FTUS46 KSEW 221750
TAFOLM
TAF
KOLM 221750Z 2218/2318 VRB03KT P6SM SCT100
     FM230600 00000KT P6SM SCT100 BKN200
     FM231200 20003KT 5SM BR OVC006=

USA.gov is the U.S. government's official web portal to all federal, state and local government web resources and services.